Time;durP1;ratioP1;P1;durP2;ratioP2;P2;SDS_P1;SDS_P2;PMS_P1;PMS_P2;Temp;Humidity;BMP_temperature;BMP_pressure;BME280_temperature;BME280_humidity;BME280_pressure;Samples;Min_cycle;Max_cycle;Signal;HPM_P1;HPM_P2
2022/08/18 00:02:15;;;;;;;;;;;26.10;69.40;;;;;;5053358;28;19917;-57
2022/08/18 00:04:41;;;;;;;;;;;26.00;69.20;;;;;;5055752;28;19955;-59
2022/08/18 00:07:08;;;;;;;;;;;26.00;69.50;;;;;;5051698;28;19917;-61
2022/08/18 00:09:34;;;;;;;;;;;26.10;68.90;;;;;;5051069;28;19916;-55
2022/08/18 00:12:02;;;;;;;;;;;26.10;68.90;;;;;;5053206;28;19912;-60
2022/08/18 00:14:28;;;;;;;;;;;26.10;69.50;;;;;;5053173;28;19935;-60
2022/08/18 00:16:54;;;;;;;;;;;26.10;70.40;;;;;;5051863;28;19913;-58
2022/08/18 00:19:21;;;;;;;;;;;26.00;70.80;;;;;;5052789;28;19928;-59
2022/08/18 00:21:46;;;;;;;;;;;26.00;71.30;;;;;;5051781;28;19916;-59
2022/08/18 00:24:12;;;;;;;;;;;26.00;71.50;;;;;;5053939;28;19916;-58
2022/08/18 00:26:37;;;;;;;;;;;26.00;73.20;;;;;;5053039;28;19940;-59
2022/08/18 00:29:03;;;;;;;;;;;26.00;74.30;;;;;;5053505;28;20047;-59
2022/08/18 00:31:30;;;;;;;;;;;25.90;74.70;;;;;;5052557;28;20041;-60
2022/08/18 00:33:56;;;;;;;;;;;25.80;74.60;;;;;;5053206;28;19916;-57
2022/08/18 00:36:21;;;;;;;;;;;25.90;74.40;;;;;;5052187;28;20451;-58
2022/08/18 00:38:47;;;;;;;;;;;25.80;73.20;;;;;;5052358;28;19970;-59
2022/08/18 00:41:12;;;;;;;;;;;25.70;72.90;;;;;;5052531;28;19913;-56
2022/08/18 00:43:43;;;;;;;;;;;25.60;73.50;;;;;;5034986;28;19917;-59
2022/08/18 00:46:13;;;;;;;;;;;25.60;72.60;;;;;;5052085;28;19920;-58
2022/08/18 00:48:38;;;;;;;;;;;25.50;72.30;;;;;;5052825;28;19913;-59
2022/08/18 00:51:09;;;;;;;;;;;25.50;72.50;;;;;;5052370;28;19912;-60
2022/08/18 00:53:46;;;;;;;;;;;25.60;73.40;;;;;;5052698;28;19925;-58
2022/08/18 00:56:21;;;;;;;;;;;25.50;73.70;;;;;;5052304;28;19921;-60
2022/08/18 00:58:54;;;;;;;;;;;25.50;73.90;;;;;;5052295;28;19917;-57
2022/08/18 01:01:22;;;;;;;;;;;25.40;73.80;;;;;;5052164;28;19999;-59
2022/08/18 01:03:52;;;;;;;;;;;25.40;74.20;;;;;;5052820;28;19909;-57
2022/08/18 01:06:27;;;;;;;;;;;25.30;75.90;;;;;;5047475;28;20266;-59
2022/08/18 01:08:53;;;;;;;;;;;25.30;75.50;;;;;;5039556;28;19999;-59
2022/08/18 01:11:19;;;;;;;;;;;25.20;75.00;;;;;;5039590;28;19958;-57
2022/08/18 01:13:44;;;;;;;;;;;25.20;75.20;;;;;;5041555;28;19922;-59
2022/08/18 01:21:49;;;;;;;;;;;25.20;75.30;;;;;;5045895;28;19917;-59
2022/08/18 01:24:15;;;;;;;;;;;25.20;75.80;;;;;;5041531;28;19937;-58
2022/08/18 01:26:45;;;;;;;;;;;25.20;74.60;;;;;;5040964;28;19909;-59
2022/08/18 01:29:10;;;;;;;;;;;25.20;75.60;;;;;;5047377;28;19917;-57
2022/08/18 01:31:38;;;;;;;;;;;25.20;76.10;;;;;;5052070;28;19912;-56
2022/08/18 01:34:05;;;;;;;;;;;25.20;75.60;;;;;;5050182;28;19917;-60
2022/08/18 01:36:32;;;;;;;;;;;25.20;76.30;;;;;;5050769;28;19909;-59
2022/08/18 01:38:58;;;;;;;;;;;25.20;76.80;;;;;;5051036;28;19956;-58
2022/08/18 01:41:24;;;;;;;;;;;25.20;77.00;;;;;;5051555;28;19920;-60
2022/08/18 01:43:50;;;;;;;;;;;25.30;75.10;;;;;;5050933;28;19917;-58
2022/08/18 01:46:18;;;;;;;;;;;25.20;75.30;;;;;;5034977;28;19982;-60
2022/08/18 01:48:44;;;;;;;;;;;25.20;76.20;;;;;;5040660;28;19913;-60
2022/08/18 01:51:12;;;;;;;;;;;25.20;77.20;;;;;;5051226;28;19956;-59
2022/08/18 01:53:37;;;;;;;;;;;25.10;78.40;;;;;;5039474;28;19916;-56
2022/08/18 01:56:04;;;;;;;;;;;25.00;79.10;;;;;;5047794;28;19920;-58
2022/08/18 01:58:33;;;;;;;;;;;25.00;79.90;;;;;;5031180;28;19924;-59
2022/08/18 02:01:00;;;;;;;;;;;24.90;79.90;;;;;;5036676;28;19912;-60
2022/08/18 02:03:48;;;;;;;;;;;24.60;79.20;;;;;;5032109;28;19916;-60
2022/08/18 02:06:15;;;;;;;;;;;24.60;78.90;;;;;;5038010;28;20292;-59
2022/08/18 02:08:41;;;;;;;;;;;24.60;78.20;;;;;;5049509;28;19948;-57
2022/08/18 02:11:06;;;;;;;;;;;24.60;78.20;;;;;;5051897;28;20526;-59
2022/08/18 02:13:32;;;;;;;;;;;24.70;78.40;;;;;;5048940;28;20327;-60
2022/08/18 02:15:58;;;;;;;;;;;24.70;78.00;;;;;;5049837;28;20000;-59
2022/08/18 02:18:26;;;;;;;;;;;24.70;77.70;;;;;;5050491;28;20004;-60
2022/08/18 02:20:52;;;;;;;;;;;24.70;78.10;;;;;;5049485;28;19984;-58
2022/08/18 02:23:18;;;;;;;;;;;24.80;78.40;;;;;;5051725;28;19913;-60
2022/08/18 02:25:43;;;;;;;;;;;24.80;78.20;;;;;;5049772;28;19959;-58
2022/08/18 02:28:09;;;;;;;;;;;24.80;78.00;;;;;;5031384;28;20448;-60
2022/08/18 02:30:38;;;;;;;;;;;24.80;78.00;;;;;;5032387;28;19913;-60
2022/08/18 02:33:08;;;;;;;;;;;24.80;78.10;;;;;;5054902;28;19939;-55
2022/08/18 02:35:34;;;;;;;;;;;24.70;78.10;;;;;;5055090;28;19928;-58
2022/08/18 02:38:00;;;;;;;;;;;24.80;78.90;;;;;;5055023;28;20342;-59
2022/08/18 02:40:26;;;;;;;;;;;24.80;79.80;;;;;;5055747;28;19908;-59
2022/08/18 02:42:51;;;;;;;;;;;24.70;80.20;;;;;;5054971;28;19942;-57
2022/08/18 02:45:17;;;;;;;;;;;24.70;80.40;;;;;;5054472;28;20058;-60
2022/08/18 02:47:43;;;;;;;;;;;24.70;79.80;;;;;;5053529;28;19913;-55
2022/08/18 02:50:09;;;;;;;;;;;24.70;80.10;;;;;;5054626;28;20011;-57
2022/08/18 02:52:35;;;;;;;;;;;24.50;79.20;;;;;;5055089;28;19916;-59
2022/08/18 02:55:01;;;;;;;;;;;24.50;79.90;;;;;;5055064;28;19980;-60
2022/08/18 02:57:27;;;;;;;;;;;24.40;79.80;;;;;;5052888;28;20015;-59
2022/08/18 02:59:52;;;;;;;;;;;24.30;79.90;;;;;;5054601;28;19960;-59
2022/08/18 03:02:19;;;;;;;;;;;24.30;79.80;;;;;;5053644;28;19960;-56
2022/08/18 03:04:45;;;;;;;;;;;24.30;80.30;;;;;;5054507;28;19995;-60
2022/08/18 03:07:10;;;;;;;;;;;24.30;80.50;;;;;;5054037;28;19959;-60
2022/08/18 03:09:36;;;;;;;;;;;24.30;80.50;;;;;;5053217;28;19969;-60
2022/08/18 03:12:02;;;;;;;;;;;24.30;80.60;;;;;;5054002;28;20315;-58
2022/08/18 03:14:28;;;;;;;;;;;24.30;81.00;;;;;;5054602;28;19928;-59
2022/08/18 03:16:53;;;;;;;;;;;24.30;80.80;;;;;;5053208;28;20372;-59
2022/08/18 03:19:19;;;;;;;;;;;24.30;80.60;;;;;;5040844;28;19921;-58
2022/08/18 03:21:45;;;;;;;;;;;24.30;81.00;;;;;;5043068;28;19996;-56
2022/08/18 03:24:11;;;;;;;;;;;24.30;80.60;;;;;;5054605;28;20438;-59
2022/08/18 03:26:39;;;;;;;;;;;24.30;81.30;;;;;;5053561;28;19952;-59
2022/08/18 03:29:05;;;;;;;;;;;24.20;81.90;;;;;;5053823;28;19924;-60
2022/08/18 03:31:30;;;;;;;;;;;24.20;81.40;;;;;;5053813;28;19912;-54
2022/08/18 03:33:57;;;;;;;;;;;24.10;81.30;;;;;;5053959;28;19921;-60
2022/08/18 03:36:24;;;;;;;;;;;24.00;81.10;;;;;;5052594;28;19988;-59
2022/08/18 03:38:50;;;;;;;;;;;23.90;80.60;;;;;;5052229;28;19920;-59
2022/08/18 03:41:17;;;;;;;;;;;23.90;80.60;;;;;;5054040;28;19955;-59
2022/08/18 03:43:43;;;;;;;;;;;24.00;80.60;;;;;;5052651;28;19967;-59
2022/08/18 03:46:09;;;;;;;;;;;24.00;80.60;;;;;;5052931;28;19917;-59
2022/08/18 03:48:38;;;;;;;;;;;24.00;80.20;;;;;;5053562;28;20039;-59
2022/08/18 03:51:06;;;;;;;;;;;23.90;80.00;;;;;;5053696;28;19913;-56
2022/08/18 03:53:33;;;;;;;;;;;23.90;80.00;;;;;;5053134;28;19921;-56
2022/08/18 03:55:59;;;;;;;;;;;23.90;78.60;;;;;;5053029;28;19925;-59
2022/08/18 03:58:25;;;;;;;;;;;23.80;78.20;;;;;;5053213;28;19917;-60
2022/08/18 04:00:51;;;;;;;;;;;23.70;79.40;;;;;;5052350;28;20020;-58
2022/08/18 04:03:17;;;;;;;;;;;23.60;79.80;;;;;;5053456;28;19913;-59
2022/08/18 04:05:42;;;;;;;;;;;23.60;79.00;;;;;;5053120;28;20380;-59
2022/08/18 04:08:08;;;;;;;;;;;23.50;79.40;;;;;;5053119;28;19909;-59
2022/08/18 04:10:34;;;;;;;;;;;23.60;79.80;;;;;;5053021;28;19913;-59
2022/08/18 04:13:00;;;;;;;;;;;23.40;79.90;;;;;;5053399;28;19913;-59
2022/08/18 04:15:25;;;;;;;;;;;23.50;79.40;;;;;;5052386;28;20418;-59
2022/08/18 04:17:51;;;;;;;;;;;23.40;79.40;;;;;;5052617;28;19966;-59
2022/08/18 04:20:16;;;;;;;;;;;23.50;79.80;;;;;;5052768;28;19917;-57
2022/08/18 04:22:44;;;;;;;;;;;23.40;79.00;;;;;;5053476;28;19908;-58
2022/08/18 04:25:09;;;;;;;;;;;23.20;79.20;;;;;;5052787;28;19913;-58
2022/08/18 04:27:35;;;;;;;;;;;23.00;80.00;;;;;;5052594;28;19967;-59
2022/08/18 04:30:01;;;;;;;;;;;23.00;79.70;;;;;;5052481;28;19923;-58
2022/08/18 04:32:29;;;;;;;;;;;22.90;80.00;;;;;;5053194;28;19986;-56
2022/08/18 04:34:54;;;;;;;;;;;22.90;80.50;;;;;;5052433;28;19913;-57
2022/08/18 04:37:20;;;;;;;;;;;22.80;80.90;;;;;;5052327;28;20391;-60
2022/08/18 04:39:46;;;;;;;;;;;22.70;80.90;;;;;;5051507;28;19952;-58
2022/08/18 04:42:12;;;;;;;;;;;22.80;80.70;;;;;;5052935;28;19944;-60
2022/08/18 04:44:38;;;;;;;;;;;22.80;81.30;;;;;;5052667;28;20377;-58
2022/08/18 04:47:04;;;;;;;;;;;22.80;81.10;;;;;;5052318;28;20502;-55
2022/08/18 04:49:30;;;;;;;;;;;22.80;81.30;;;;;;5052809;28;19935;-59
2022/08/18 04:54:41;;;;;;;;;;;22.80;82.10;;;;;;5052308;28;19921;-60
2022/08/18 04:57:17;;;;;;;;;;;22.90;82.10;;;;;;5051403;28;20360;-60
2022/08/18 04:59:44;;;;;;;;;;;23.00;82.50;;;;;;5052730;28;19913;-58
2022/08/18 05:02:10;;;;;;;;;;;23.00;82.70;;;;;;5051827;28;20336;-54
2022/08/18 05:04:40;;;;;;;;;;;23.10;82.90;;;;;;5052183;28;20527;-56
2022/08/18 05:07:07;;;;;;;;;;;23.10;83.30;;;;;;5051826;28;20352;-59
2022/08/18 05:09:32;;;;;;;;;;;23.20;83.30;;;;;;5050796;28;19919;-58
2022/08/18 05:11:58;;;;;;;;;;;23.20;83.90;;;;;;5051885;28;19948;-59
2022/08/18 05:14:23;;;;;;;;;;;23.10;84.30;;;;;;5052592;28;19913;-61
2022/08/18 05:16:50;;;;;;;;;;;23.20;84.20;;;;;;5051124;28;20434;-56
2022/08/18 05:19:21;;;;;;;;;;;23.20;85.00;;;;;;5035415;28;20439;-56
2022/08/18 05:21:50;;;;;;;;;;;23.00;85.60;;;;;;5038538;28;19913;-59
2022/08/18 05:24:15;;;;;;;;;;;23.20;85.60;;;;;;5050872;28;19954;-59
2022/08/18 05:26:41;;;;;;;;;;;23.10;86.00;;;;;;5053041;28;19917;-57
2022/08/18 05:29:07;;;;;;;;;;;23.20;86.50;;;;;;5053956;28;19915;-55
2022/08/18 05:31:32;;;;;;;;;;;23.10;86.80;;;;;;5052583;28;19913;-58
2022/08/18 05:34:01;;;;;;;;;;;23.10;87.10;;;;;;5052391;28;19995;-61
2022/08/18 05:36:34;;;;;;;;;;;23.00;87.40;;;;;;5051396;28;19955;-54
2022/08/18 05:38:59;;;;;;;;;;;23.20;87.40;;;;;;5051486;28;19936;-60
2022/08/18 05:41:28;;;;;;;;;;;23.10;88.20;;;;;;5051968;28;20356;-58
2022/08/18 05:43:55;;;;;;;;;;;23.20;87.90;;;;;;5051669;28;19996;-58
2022/08/18 05:46:23;;;;;;;;;;;23.20;87.80;;;;;;5051545;28;19920;-59
2022/08/18 05:48:49;;;;;;;;;;;23.30;88.10;;;;;;5051698;28;19956;-59
2022/08/18 05:51:35;;;;;;;;;;;23.20;88.30;;;;;;5051993;28;19967;-62
2022/08/18 05:56:46;;;;;;;;;;;23.10;89.40;;;;;;5051859;28;19913;-60
2022/08/18 05:59:15;;;;;;;;;;;23.20;89.40;;;;;;5051475;28;20009;-58
2022/08/18 06:01:43;;;;;;;;;;;23.30;89.10;;;;;;5051111;28;19913;-60
2022/08/18 06:04:35;;;;;;;;;;;23.30;89.50;;;;;;5051383;28;20018;-60
2022/08/18 06:07:03;;;;;;;;;;;23.30;89.30;;;;;;5055906;28;20445;-59
2022/08/18 06:09:33;;;;;;;;;;;23.40;89.30;;;;;;5057980;28;19917;-57
2022/08/18 06:12:16;;;;;;;;;;;23.40;89.70;;;;;;5057941;28;20024;-59
2022/08/18 06:14:41;;;;;;;;;;;23.30;90.00;;;;;;5058000;28;19913;-57
2022/08/18 06:17:25;;;;;;;;;;;23.40;90.00;;;;;;5055591;28;19917;-57
2022/08/18 06:20:00;;;;;;;;;;;23.40;90.20;;;;;;5049730;28;19913;-60
2022/08/18 06:22:40;;;;;;;;;;;23.20;90.60;;;;;;5058607;28;19952;-58
2022/08/18 06:25:14;;;;;;;;;;;23.10;91.20;;;;;;5057736;28;20066;-58
2022/08/18 06:27:50;;;;;;;;;;;23.30;91.10;;;;;;5057250;28;19974;-57
2022/08/18 06:30:22;;;;;;;;;;;23.30;91.20;;;;;;5057348;28;19992;-59
2022/08/18 06:32:51;;;;;;;;;;;23.20;91.40;;;;;;5058236;28;19908;-60
2022/08/18 06:35:29;;;;;;;;;;;23.20;91.60;;;;;;5054617;28;19964;-56
2022/08/18 06:40:42;;;;;;;;;;;23.10;92.10;;;;;;5038580;28;20361;-57
2022/08/18 06:43:10;;;;;;;;;;;23.20;92.00;;;;;;5054218;28;19923;-58
2022/08/18 06:45:37;;;;;;;;;;;23.20;92.20;;;;;;5057090;28;19919;-61
2022/08/18 06:48:27;;;;;;;;;;;23.20;92.30;;;;;;5057762;28;19939;-60
2022/08/18 06:50:56;;;;;;;;;;;23.10;92.60;;;;;;5059839;28;19909;-60
2022/08/18 06:53:41;;;;;;;;;;;23.40;92.60;;;;;;5057478;28;19912;-58
2022/08/18 06:56:31;;;;;;;;;;;23.30;92.40;;;;;;5069339;28;20356;-59
2022/08/18 06:59:16;;;;;;;;;;;23.30;92.70;;;;;;5057454;28;19927;-57
2022/08/18 07:01:42;;;;;;;;;;;23.30;92.80;;;;;;5062140;28;19919;-59
2022/08/18 07:04:07;;;;;;;;;;;23.20;92.90;;;;;;5057671;28;20004;-61
2022/08/18 07:06:33;;;;;;;;;;;23.40;92.80;;;;;;5056722;28;19959;-58
2022/08/18 07:09:17;;;;;;;;;;;23.50;92.80;;;;;;5058056;28;19932;-59
2022/08/18 07:11:57;;;;;;;;;;;23.60;92.60;;;;;;5057291;28;19912;-58
2022/08/18 07:14:24;;;;;;;;;;;23.70;92.50;;;;;;5057214;28;20364;-58
2022/08/18 07:17:04;;;;;;;;;;;23.90;92.50;;;;;;5056069;28;19917;-58
2022/08/18 07:19:30;;;;;;;;;;;24.00;92.10;;;;;;5051631;28;20011;-59
2022/08/18 07:22:07;;;;;;;;;;;24.00;92.40;;;;;;5052956;28;19960;-56
2022/08/18 07:24:37;;;;;;;;;;;23.90;92.00;;;;;;5068642;28;19956;-61
2022/08/18 07:27:04;;;;;;;;;;;23.80;92.10;;;;;;5049746;28;19959;-62
2022/08/18 07:29:32;;;;;;;;;;;23.90;92.10;;;;;;5049411;28;19917;-58
2022/08/18 07:32:00;;;;;;;;;;;23.90;91.90;;;;;;5048873;28;20554;-55
2022/08/18 07:34:30;;;;;;;;;;;23.90;92.20;;;;;;5055151;28;20054;-58
2022/08/18 07:37:01;;;;;;;;;;;23.90;92.20;;;;;;5054317;28;19921;-57
2022/08/18 07:39:32;;;;;;;;;;;23.90;92.00;;;;;;5054943;28;20019;-60
2022/08/18 07:42:02;;;;;;;;;;;24.00;91.90;;;;;;5042911;28;19992;-60
2022/08/18 07:44:27;;;;;;;;;;;24.00;91.90;;;;;;5058806;28;19908;-59
2022/08/18 07:47:02;;;;;;;;;;;24.10;91.80;;;;;;5053972;28;19913;-59
2022/08/18 07:49:32;;;;;;;;;;;24.20;91.90;;;;;;5054880;28;20521;-60
2022/08/18 07:52:27;;;;;;;;;;;24.20;91.90;;;;;;5053708;28;19912;-60
2022/08/18 07:55:00;;;;;;;;;;;24.40;91.40;;;;;;5053038;28;20291;-54
2022/08/18 07:57:42;;;;;;;;;;;24.40;91.40;;;;;;5053284;28;20411;-60
2022/08/18 08:00:16;;;;;;;;;;;24.50;91.20;;;;;;5054453;28;19908;-60
2022/08/18 08:02:45;;;;;;;;;;;24.60;91.00;;;;;;5054350;28;19913;-60
2022/08/18 08:05:23;;;;;;;;;;;24.60;91.00;;;;;;5054434;28;20456;-55
2022/08/18 08:07:52;;;;;;;;;;;24.70;90.90;;;;;;5054725;28;19960;-60
2022/08/18 08:10:34;;;;;;;;;;;24.60;90.90;;;;;;5054400;28;19963;-58
2022/08/18 08:13:27;;;;;;;;;;;24.70;90.80;;;;;;5054037;28;19920;-59
2022/08/18 08:16:03;;;;;;;;;;;24.60;90.50;;;;;;5052760;28;19908;-60
2022/08/18 08:18:35;;;;;;;;;;;24.50;90.70;;;;;;5054412;28;19917;-58
2022/08/18 08:21:07;;;;;;;;;;;24.50;90.80;;;;;;5053978;28;19909;-56
2022/08/18 08:23:54;;;;;;;;;;;24.70;90.80;;;;;;5053896;28;19913;-61
2022/08/18 08:26:23;;;;;;;;;;;24.70;90.80;;;;;;5052728;28;19920;-61
2022/08/18 08:28:57;;;;;;;;;;;24.80;90.90;;;;;;5052514;28;19913;-59
2022/08/18 08:31:26;;;;;;;;;;;24.80;90.70;;;;;;5052943;28;20387;-60
2022/08/18 08:33:56;;;;;;;;;;;24.70;91.10;;;;;;5055328;28;20403;-55
2022/08/18 08:36:26;;;;;;;;;;;24.80;90.80;;;;;;5053925;28;19917;-59
2022/08/18 08:38:56;;;;;;;;;;;24.60;90.80;;;;;;5053795;28;19920;-56
2022/08/18 08:41:34;;;;;;;;;;;24.60;91.10;;;;;;5053246;28;19936;-60
2022/08/18 08:44:00;;;;;;;;;;;24.50;91.60;;;;;;5048769;28;19956;-60
2022/08/18 08:46:31;;;;;;;;;;;24.50;91.50;;;;;;5040746;28;19951;-61
2022/08/18 08:49:08;;;;;;;;;;;24.50;91.50;;;;;;5052830;28;20277;-59
2022/08/18 08:51:37;;;;;;;;;;;24.50;91.40;;;;;;5053930;28;19916;-60
2022/08/18 08:54:11;;;;;;;;;;;24.50;91.30;;;;;;5053155;28;19916;-58
2022/08/18 08:56:43;;;;;;;;;;;24.40;91.00;;;;;;5051734;28;19919;-60
2022/08/18 08:59:10;;;;;;;;;;;24.50;91.00;;;;;;5052788;28;19917;-59
2022/08/18 09:01:43;;;;;;;;;;;24.60;91.00;;;;;;5052960;28;19917;-60
2022/08/18 09:04:20;;;;;;;;;;;24.60;90.90;;;;;;5053083;28;19909;-58
2022/08/18 09:07:04;;;;;;;;;;;24.50;90.90;;;;;;5052666;28;19908;-60
2022/08/18 09:09:35;;;;;;;;;;;24.50;91.00;;;;;;5052685;28;19908;-59
2022/08/18 09:12:07;;;;;;;;;;;24.60;91.00;;;;;;5052544;28;19909;-59
2022/08/18 09:14:49;;;;;;;;;;;24.50;91.10;;;;;;5054047;28;19952;-59
2022/08/18 09:17:16;;;;;;;;;;;24.60;91.10;;;;;;5052376;28;19920;-58
2022/08/18 09:19:53;;;;;;;;;;;24.70;91.00;;;;;;5052521;28;20350;-59
2022/08/18 09:22:34;;;;;;;;;;;24.80;90.70;;;;;;5052851;28;19920;-59
2022/08/18 09:25:00;;;;;;;;;;;24.70;90.90;;;;;;5052290;28;20004;-59
2022/08/18 09:27:25;;;;;;;;;;;24.80;90.60;;;;;;5051212;28;20059;-58
2022/08/18 09:29:53;;;;;;;;;;;24.80;90.50;;;;;;5052477;28;19916;-59
2022/08/18 09:32:18;;;;;;;;;;;24.80;90.60;;;;;;5052733;28;19940;-60
2022/08/18 09:34:47;;;;;;;;;;;24.80;90.60;;;;;;5052217;28;19935;-59
2022/08/18 09:37:17;;;;;;;;;;;24.70;90.70;;;;;;5051535;28;19909;-61
2022/08/18 09:42:36;;;;;;;;;;;24.80;90.50;;;;;;5050964;28;20249;-59
2022/08/18 09:45:10;;;;;;;;;;;24.90;90.50;;;;;;5040071;28;19916;-54
2022/08/18 09:47:36;;;;;;;;;;;25.00;90.60;;;;;;5051658;28;19917;-60
2022/08/18 09:50:04;;;;;;;;;;;25.00;90.50;;;;;;5051118;28;19940;-60
2022/08/18 09:52:46;;;;;;;;;;;25.10;90.20;;;;;;5050555;28;19995;-60
2022/08/18 09:55:17;;;;;;;;;;;25.20;90.30;;;;;;5051109;28;20078;-57
2022/08/18 09:57:44;;;;;;;;;;;25.20;89.80;;;;;;5050586;28;20380;-55
2022/08/18 10:00:13;;;;;;;;;;;25.00;89.90;;;;;;5052057;28;19928;-57
2022/08/18 10:02:40;;;;;;;;;;;24.90;90.10;;;;;;5051986;28;19913;-58
2022/08/18 10:05:14;;;;;;;;;;;25.00;90.10;;;;;;5051046;28;19913;-59
2022/08/18 10:07:54;;;;;;;;;;;24.90;90.20;;;;;;5048941;28;20395;-58
2022/08/18 10:10:41;;;;;;;;;;;24.90;90.30;;;;;;5049222;28;19942;-59
2022/08/18 10:13:25;;;;;;;;;;;24.80;90.00;;;;;;5050720;28;19913;-59
2022/08/18 10:16:06;;;;;;;;;;;24.80;90.20;;;;;;5051066;28;19909;-61
2022/08/18 10:18:55;;;;;;;;;;;24.90;89.90;;;;;;5050992;28;19943;-59
2022/08/18 10:21:27;;;;;;;;;;;24.80;90.10;;;;;;5052343;28;19913;-59
2022/08/18 10:23:53;;;;;;;;;;;24.70;90.20;;;;;;5048694;28;20416;-58
2022/08/18 10:26:30;;;;;;;;;;;25.00;89.70;;;;;;5051547;28;20068;-56
2022/08/18 10:29:04;;;;;;;;;;;25.00;90.00;;;;;;5049385;28;19973;-54
2022/08/18 10:31:30;;;;;;;;;;;25.20;89.40;;;;;;5051763;28;19941;-56
2022/08/18 10:34:10;;;;;;;;;;;25.30;89.10;;;;;;5052128;28;19938;-54
2022/08/18 10:36:50;;;;;;;;;;;25.20;88.80;;;;;;5050522;28;19995;-56
2022/08/18 10:39:21;;;;;;;;;;;25.00;90.00;;;;;;5051714;28;19959;-56
2022/08/18 10:42:04;;;;;;;;;;;25.10;89.50;;;;;;5051544;28;19944;-54
2022/08/18 10:44:33;;;;;;;;;;;25.20;89.40;;;;;;5051193;28;19913;-58
2022/08/18 10:46:59;;;;;;;;;;;25.40;88.60;;;;;;5050271;28;20011;-58
2022/08/18 10:49:26;;;;;;;;;;;25.50;88.50;;;;;;5052077;28;19963;-56
2022/08/18 10:51:52;;;;;;;;;;;25.50;87.10;;;;;;5051752;28;19913;-52
2022/08/18 10:54:17;;;;;;;;;;;25.20;88.10;;;;;;5055961;28;19924;-54
2022/08/18 10:56:46;;;;;;;;;;;25.10;88.70;;;;;;5055022;28;19908;-57
2022/08/18 10:59:18;;;;;;;;;;;25.20;88.80;;;;;;5055200;28;19917;-50
2022/08/18 11:01:47;;;;;;;;;;;25.60;88.10;;;;;;5055368;28;19909;-53
2022/08/18 11:04:21;;;;;;;;;;;25.90;87.20;;;;;;5055456;28;19954;-53
2022/08/18 11:06:49;;;;;;;;;;;25.70;87.50;;;;;;5054284;28;19924;-54
2022/08/18 11:09:21;;;;;;;;;;;25.60;87.10;;;;;;5054978;28;20031;-53
2022/08/18 11:11:50;;;;;;;;;;;25.50;88.10;;;;;;5054072;28;19999;-55
2022/08/18 11:14:26;;;;;;;;;;;25.50;89.10;;;;;;5054146;28;19944;-52
2022/08/18 11:17:11;;;;;;;;;;;25.60;88.50;;;;;;5054768;28;19909;-56
2022/08/18 11:19:37;;;;;;;;;;;25.40;88.40;;;;;;5054995;28;19913;-57
2022/08/18 11:22:04;;;;;;;;;;;25.70;88.20;;;;;;5054973;28;20296;-53
2022/08/18 11:24:30;;;;;;;;;;;25.50;87.70;;;;;;5055507;28;20277;-52
2022/08/18 11:27:01;;;;;;;;;;;25.60;88.40;;;;;;5054018;28;19912;-56
2022/08/18 11:29:31;;;;;;;;;;;25.20;90.00;;;;;;5054362;28;20242;-54
2022/08/18 11:32:15;;;;;;;;;;;25.00;90.30;;;;;;5054680;28;19990;-52
2022/08/18 11:34:42;;;;;;;;;;;24.90;90.30;;;;;;5054865;28;20280;-50
2022/08/18 11:37:23;;;;;;;;;;;25.00;90.10;;;;;;5054015;28;19915;-49
2022/08/18 11:39:50;;;;;;;;;;;24.80;90.10;;;;;;5054611;28;19913;-53
2022/08/18 11:42:17;;;;;;;;;;;24.70;90.20;;;;;;5054123;28;19916;-52
2022/08/18 11:44:44;;;;;;;;;;;24.80;90.20;;;;;;5044335;28;19909;-55
2022/08/18 11:47:17;;;;;;;;;;;24.90;90.00;;;;;;5050837;28;19923;-55
2022/08/18 11:49:50;;;;;;;;;;;24.90;89.20;;;;;;5057110;28;20429;-51
2022/08/18 11:52:18;;;;;;;;;;;24.90;89.40;;;;;;5057534;28;19908;-55
2022/08/18 11:54:46;;;;;;;;;;;24.90;89.20;;;;;;5054134;28;19971;-56
2022/08/18 11:57:29;;;;;;;;;;;24.70;89.10;;;;;;5052827;28;20391;-56
2022/08/18 11:59:55;;;;;;;;;;;24.60;89.70;;;;;;5054202;28;19916;-52
2022/08/18 12:02:22;;;;;;;;;;;24.60;89.70;;;;;;5053692;28;19919;-53
2022/08/18 12:04:53;;;;;;;;;;;24.70;89.90;;;;;;5052589;28;20000;-57
2022/08/18 12:07:44;;;;;;;;;;;24.70;90.10;;;;;;5053198;28;19913;-56
2022/08/18 12:10:13;;;;;;;;;;;24.80;90.00;;;;;;5054670;28;20008;-55
2022/08/18 12:12:46;;;;;;;;;;;24.80;89.40;;;;;;5053543;28;19917;-56
2022/08/18 12:15:12;;;;;;;;;;;24.90;89.50;;;;;;5053207;28;19917;-57
2022/08/18 12:17:39;;;;;;;;;;;24.90;89.50;;;;;;5053389;28;19912;-57
2022/08/18 12:20:07;;;;;;;;;;;25.00;89.40;;;;;;5052927;28;19913;-57
2022/08/18 12:22:33;;;;;;;;;;;25.10;89.20;;;;;;5052783;28;19913;-56
2022/08/18 12:24:59;;;;;;;;;;;25.20;88.90;;;;;;5052590;28;19917;-55
2022/08/18 12:27:26;;;;;;;;;;;25.00;89.10;;;;;;5052386;28;19920;-56
2022/08/18 12:29:52;;;;;;;;;;;25.00;89.40;;;;;;5053420;28;19908;-57
2022/08/18 12:32:19;;;;;;;;;;;25.10;89.30;;;;;;5052024;28;19978;-55
2022/08/18 12:34:45;;;;;;;;;;;25.20;88.90;;;;;;5050005;28;19909;-55
2022/08/18 12:37:13;;;;;;;;;;;25.30;88.80;;;;;;5051738;28;19913;-56
2022/08/18 12:39:39;;;;;;;;;;;25.30;88.70;;;;;;5053196;28;20321;-54
2022/08/18 12:42:05;;;;;;;;;;;25.50;88.50;;;;;;5052089;28;20273;-57
2022/08/18 12:44:30;;;;;;;;;;;25.40;88.90;;;;;;5053343;28;19919;-55
2022/08/18 12:46:56;;;;;;;;;;;25.30;89.10;;;;;;5052055;28;19919;-53
2022/08/18 12:49:23;;;;;;;;;;;25.40;89.20;;;;;;5052552;28;19975;-55
2022/08/18 12:51:49;;;;;;;;;;;25.50;88.80;;;;;;5050583;28;19952;-56
2022/08/18 12:54:15;;;;;;;;;;;25.50;89.00;;;;;;5052211;28;20364;-58
2022/08/18 12:56:41;;;;;;;;;;;25.60;89.30;;;;;;5050775;28;19924;-56
2022/08/18 12:59:08;;;;;;;;;;;25.60;89.40;;;;;;5052893;28;19916;-54
2022/08/18 13:01:34;;;;;;;;;;;25.60;89.50;;;;;;5052498;28;19975;-53
2022/08/18 13:04:00;;;;;;;;;;;25.60;89.20;;;;;;5052837;28;20388;-55
2022/08/18 13:06:26;;;;;;;;;;;25.70;89.40;;;;;;5052316;28;19913;-57
2022/08/18 13:08:53;;;;;;;;;;;25.50;90.00;;;;;;5050646;28;19928;-55
2022/08/18 13:11:19;;;;;;;;;;;25.50;90.10;;;;;;5052770;28;19913;-52
2022/08/18 13:13:45;;;;;;;;;;;25.60;89.80;;;;;;5051189;28;19970;-57
2022/08/18 13:16:11;;;;;;;;;;;25.70;89.40;;;;;;5052270;28;20458;-60
2022/08/18 13:18:40;;;;;;;;;;;25.80;89.20;;;;;;5051662;28;19913;-58
2022/08/18 13:21:07;;;;;;;;;;;25.90;89.10;;;;;;5052515;28;19909;-54
2022/08/18 13:23:32;;;;;;;;;;;26.00;89.00;;;;;;5051581;28;20011;-57
2022/08/18 13:25:59;;;;;;;;;;;26.10;88.60;;;;;;5052109;28;20333;-56
2022/08/18 13:28:25;;;;;;;;;;;26.20;88.80;;;;;;5051514;28;20397;-57
2022/08/18 13:30:50;;;;;;;;;;;26.30;88.70;;;;;;5050427;28;19949;-52
2022/08/18 13:33:17;;;;;;;;;;;26.30;88.80;;;;;;5039169;28;19917;-54
2022/08/18 13:35:43;;;;;;;;;;;26.20;88.60;;;;;;5051182;28;19913;-56
2022/08/18 13:38:09;;;;;;;;;;;26.20;89.10;;;;;;5051270;28;20383;-60
2022/08/18 13:40:36;;;;;;;;;;;26.10;89.50;;;;;;5051982;28;19917;-55
2022/08/18 13:43:01;;;;;;;;;;;26.00;89.60;;;;;;5051754;28;19982;-55
2022/08/18 13:45:27;;;;;;;;;;;25.80;90.20;;;;;;5050986;28;20320;-56
2022/08/18 13:47:52;;;;;;;;;;;25.70;90.10;;;;;;5051293;28;20296;-49
2022/08/18 13:50:18;;;;;;;;;;;25.70;90.10;;;;;;5051384;28;19920;-56
2022/08/18 13:52:44;;;;;;;;;;;25.80;90.10;;;;;;5050830;28;19970;-55
2022/08/18 13:55:11;;;;;;;;;;;25.80;90.10;;;;;;5051732;28;20350;-55
2022/08/18 13:57:37;;;;;;;;;;;25.80;90.40;;;;;;5050355;28;19987;-56
2022/08/18 14:00:05;;;;;;;;;;;25.70;90.30;;;;;;5051131;28;19913;-52
2022/08/18 14:02:30;;;;;;;;;;;25.70;90.30;;;;;;5051494;28;20031;-57
2022/08/18 14:04:56;;;;;;;;;;;25.70;90.40;;;;;;5051772;28;20051;-56
2022/08/18 14:07:22;;;;;;;;;;;25.70;90.40;;;;;;5051186;28;20024;-55
2022/08/18 14:09:47;;;;;;;;;;;25.70;90.40;;;;;;5052125;28;19944;-56
2022/08/18 14:12:18;;;;;;;;;;;25.70;90.30;;;;;;5052214;28;19988;-55
2022/08/18 14:14:44;;;;;;;;;;;25.60;90.30;;;;;;5051304;28;19971;-54
2022/08/18 14:17:09;;;;;;;;;;;25.60;90.50;;;;;;5049601;28;19959;-53
2022/08/18 14:27:47;;;;;;;;;;;25.60;90.30;;;;;;5053161;28;19908;-58
2022/08/18 14:30:13;;;;;;;;;;;25.80;90.10;;;;;;5043370;28;19928;-56
2022/08/18 14:32:40;;;;;;;;;;;25.70;90.00;;;;;;5040078;28;19964;-55
2022/08/18 14:35:07;;;;;;;;;;;25.80;90.00;;;;;;5055415;28;20426;-51
2022/08/18 14:37:33;;;;;;;;;;;25.80;89.60;;;;;;5054665;28;19913;-53
2022/08/18 14:39:58;;;;;;;;;;;25.80;89.90;;;;;;5056002;28;19913;-56
2022/08/18 14:42:24;;;;;;;;;;;25.80;90.00;;;;;;5054564;28;19959;-55
2022/08/18 14:44:50;;;;;;;;;;;25.80;90.00;;;;;;5057129;28;20352;-58
2022/08/18 14:47:15;;;;;;;;;;;25.80;89.90;;;;;;5057338;28;19935;-57
2022/08/18 14:49:42;;;;;;;;;;;25.90;89.90;;;;;;5057592;28;20027;-53
2022/08/18 14:52:09;;;;;;;;;;;25.90;90.00;;;;;;5044504;28;19920;-54
2022/08/18 14:54:35;;;;;;;;;;;25.90;90.00;;;;;;5045615;28;20007;-55